createdAt,value
2018-07-15T00:00:23.034Z,0.00
2018-07-15T00:01:23.033Z,0.00
2018-07-15T00:02:23.032Z,0.00
2018-07-15T00:03:23.033Z,0.00
2018-07-15T00:04:23.033Z,0.00
2018-07-15T00:05:23.033Z,0.00
2018-07-15T00:06:23.038Z,0.00
2018-07-15T00:07:23.031Z,0.00
2018-07-15T00:08:23.029Z,0.00
2018-07-15T00:09:23.030Z,0.00
2018-07-15T00:10:23.029Z,0.00
2018-07-15T00:11:23.029Z,0.00
2018-07-15T00:12:23.030Z,0.00
2018-07-15T00:13:23.028Z,0.00
2018-07-15T00:14:23.027Z,0.00
2018-07-15T00:15:23.029Z,0.00
2018-07-15T00:16:23.025Z,0.00
2018-07-15T00:17:23.029Z,0.00
2018-07-15T00:18:23.024Z,0.00
2018-07-15T00:19:23.025Z,0.00
2018-07-15T00:20:23.022Z,0.00
2018-07-15T00:21:23.023Z,0.00
2018-07-15T00:22:23.024Z,0.00
2018-07-15T00:23:23.023Z,0.00
2018-07-15T00:24:23.024Z,0.00
2018-07-15T00:25:23.022Z,0.00
2018-07-15T00:26:23.022Z,0.00
2018-07-15T00:27:23.021Z,0.00
2018-07-15T00:28:23.020Z,0.00
2018-07-15T00:29:23.019Z,0.00
2018-07-15T00:30:23.016Z,0.00
2018-07-15T00:31:23.019Z,0.00
2018-07-15T00:32:23.019Z,0.00
2018-07-15T00:33:23.017Z,0.00
2018-07-15T00:34:23.016Z,0.00
2018-07-15T00:35:23.014Z,0.00
2018-07-15T00:36:23.020Z,0.00
2018-07-15T00:37:23.014Z,0.00
2018-07-15T00:38:23.015Z,0.00
2018-07-15T00:39:23.013Z,0.00
2018-07-15T00:40:23.012Z,0.00
2018-07-15T00:41:23.012Z,0.00
2018-07-15T00:42:23.009Z,0.00
2018-07-15T00:43:23.011Z,0.00
2018-07-15T00:44:23.009Z,0.00
2018-07-15T00:45:23.007Z,0.00
2018-07-15T00:46:23.007Z,0.00
2018-07-15T00:47:23.007Z,0.00
2018-07-15T00:48:23.008Z,0.00
2018-07-15T00:49:23.007Z,0.00
2018-07-15T00:50:23.004Z,0.00
2018-07-15T00:51:23.005Z,0.00
2018-07-15T00:52:23.004Z,0.00
2018-07-15T00:53:23.004Z,0.00
2018-07-15T00:54:23.002Z,0.00
2018-07-15T00:55:23.055Z,0.00
2018-07-15T00:56:23.001Z,0.00
2018-07-15T00:57:23.001Z,0.00
2018-07-15T00:58:23.002Z,0.00
2018-07-15T00:59:22.998Z,0.00
2018-07-15T01:00:22.998Z,0.00
2018-07-15T01:01:22.997Z,0.00
2018-07-15T01:02:22.997Z,0.00
2018-07-15T01:03:22.995Z,0.00
2018-07-15T01:04:22.994Z,0.00
2018-07-15T01:05:22.995Z,0.00
2018-07-15T01:06:22.993Z,0.00
2018-07-15T01:07:22.992Z,0.00
2018-07-15T01:08:22.989Z,0.00
2018-07-15T01:09:22.994Z,0.00
2018-07-15T01:10:22.989Z,0.00
2018-07-15T01:11:22.988Z,0.00
2018-07-15T01:12:22.990Z,0.00
2018-07-15T01:13:22.988Z,0.00
2018-07-15T01:14:22.986Z,0.00
2018-07-15T01:15:22.985Z,0.00
2018-07-15T01:16:22.983Z,0.00
2018-07-15T01:17:22.984Z,0.00
2018-07-15T01:18:22.983Z,0.00
2018-07-15T01:19:22.984Z,0.00
2018-07-15T01:20:22.991Z,0.00
2018-07-15T01:21:22.981Z,0.00
2018-07-15T01:22:22.979Z,0.00
2018-07-15T01:23:22.979Z,0.00
2018-07-15T01:24:22.977Z,0.00
2018-07-15T01:25:22.978Z,0.00
2018-07-15T01:26:22.975Z,0.00
2018-07-15T01:27:22.978Z,0.00
2018-07-15T01:28:22.975Z,0.00
2018-07-15T01:29:22.974Z,0.00
2018-07-15T01:30:22.971Z,0.00
2018-07-15T01:31:22.971Z,0.00
2018-07-15T01:32:22.980Z,0.00
2018-07-15T01:33:22.969Z,0.00
2018-07-15T01:34:22.970Z,0.00
2018-07-15T01:35:22.966Z,0.00
2018-07-15T01:36:22.967Z,0.00
2018-07-15T01:37:22.965Z,0.00
2018-07-15T01:38:22.965Z,0.00
2018-07-15T01:39:22.967Z,0.00
2018-07-15T01:40:22.964Z,0.00
2018-07-15T01:41:22.964Z,0.00
2018-07-15T01:42:22.961Z,0.00
2018-07-15T01:43:22.960Z,0.00
2018-07-15T01:44:22.957Z,0.00
2018-07-15T01:45:22.958Z,0.00
2018-07-15T01:46:22.956Z,0.00
2018-07-15T01:47:22.955Z,0.00
2018-07-15T01:48:22.955Z,0.00
2018-07-15T01:49:22.954Z,0.00
2018-07-15T01:50:22.952Z,0.00
2018-07-15T01:51:22.950Z,0.00
2018-07-15T01:52:22.951Z,0.00
2018-07-15T01:53:22.966Z,0.00
2018-07-15T01:54:22.947Z,0.00
2018-07-15T01:55:22.947Z,0.00
2018-07-15T01:56:22.947Z,0.00
2018-07-15T01:57:22.944Z,0.00
2018-07-15T01:58:22.942Z,0.00
2018-07-15T01:59:22.942Z,0.00
2018-07-15T02:00:22.945Z,0.00
2018-07-15T02:01:22.941Z,0.00
2018-07-15T02:02:22.939Z,0.00
2018-07-15T02:03:22.938Z,0.00
2018-07-15T02:04:22.938Z,0.00
2018-07-15T02:05:22.936Z,0.00
2018-07-15T02:06:22.936Z,0.00
2018-07-15T02:07:22.934Z,0.00
2018-07-15T02:08:22.933Z,0.00
2018-07-15T02:09:22.932Z,0.00
2018-07-15T02:10:22.929Z,0.00
2018-07-15T02:11:22.929Z,0.00
2018-07-15T02:12:22.931Z,0.00
2018-07-15T02:13:22.931Z,0.00
2018-07-15T02:14:22.925Z,0.00
2018-07-15T02:15:22.925Z,0.00
2018-07-15T02:16:22.940Z,0.00
2018-07-15T02:17:22.924Z,4.00
2018-07-15T02:18:22.922Z,4.00
2018-07-15T02:19:22.920Z,4.00
2018-07-15T02:20:22.919Z,0.00
2018-07-15T02:21:22.917Z,0.00
2018-07-15T02:22:22.916Z,4.00
2018-07-15T02:23:22.919Z,4.00
2018-07-15T02:24:22.914Z,0.00
2018-07-15T02:25:22.911Z,4.00
2018-07-15T02:26:22.911Z,4.00
2018-07-15T02:27:22.911Z,4.00
2018-07-15T02:28:22.910Z,8.00
2018-07-15T02:29:22.908Z,4.00
2018-07-15T02:30:22.917Z,8.00
2018-07-15T02:31:22.906Z,8.00
2018-07-15T02:32:22.906Z,8.00
2018-07-15T02:33:22.904Z,8.00
2018-07-15T02:34:22.901Z,12.00
2018-07-15T02:35:22.900Z,12.00
2018-07-15T02:36:22.899Z,16.00
2018-07-15T02:37:22.901Z,16.00
2018-07-15T02:38:22.896Z,20.00
2018-07-15T02:39:22.892Z,20.00
2018-07-15T02:40:22.894Z,24.00
2018-07-15T02:41:22.893Z,28.00
2018-07-15T02:42:22.891Z,28.00
2018-07-15T02:43:22.890Z,32.00
2018-07-15T02:44:22.894Z,36.00
2018-07-15T02:45:22.890Z,40.00
2018-07-15T02:46:22.882Z,44.00
2018-07-15T02:47:22.882Z,48.00
2018-07-15T02:48:22.886Z,52.00
2018-07-15T02:49:22.883Z,60.00
2018-07-15T02:50:22.879Z,64.00
2018-07-15T02:51:22.879Z,72.00
2018-07-15T02:52:22.878Z,76.00
2018-07-15T02:53:22.877Z,84.00
2018-07-15T02:54:22.878Z,92.00
2018-07-15T02:55:22.874Z,100.00
2018-07-15T02:56:22.874Z,108.00
2018-07-15T02:57:22.871Z,120.00
2018-07-15T02:58:22.870Z,128.00
2018-07-15T02:59:22.880Z,140.00
2018-07-15T03:00:22.870Z,152.00
2018-07-15T03:01:22.866Z,164.00
2018-07-15T03:02:22.865Z,176.00
2018-07-15T03:03:22.863Z,188.00
2018-07-15T03:04:22.862Z,204.00
2018-07-15T03:05:22.864Z,216.00
2018-07-15T03:06:22.859Z,232.00
2018-07-15T03:07:22.858Z,248.00
2018-07-15T03:08:22.857Z,268.00
2018-07-15T03:09:22.855Z,288.00
2018-07-15T03:10:22.858Z,304.00
2018-07-15T03:11:22.857Z,320.00
2018-07-15T03:12:22.850Z,340.00
2018-07-15T03:13:22.851Z,360.00
2018-07-15T03:14:22.848Z,384.00
2018-07-15T03:15:22.847Z,404.00
2018-07-15T03:16:22.846Z,428.00
2018-07-15T03:17:22.861Z,452.00
2018-07-15T03:18:22.841Z,476.00
2018-07-15T03:19:22.841Z,496.00
2018-07-15T03:20:22.838Z,516.00
2018-07-15T03:21:22.841Z,540.00
2018-07-15T03:22:22.897Z,564.00
2018-07-15T03:23:22.835Z,592.00
2018-07-15T03:24:22.834Z,616.00
2018-07-15T03:25:22.834Z,652.00
2018-07-15T03:26:22.831Z,708.00
2018-07-15T03:27:22.834Z,756.00
2018-07-15T03:28:22.829Z,784.00
2018-07-15T03:29:22.828Z,820.00
2018-07-15T03:30:22.825Z,864.00
2018-07-15T03:31:22.827Z,904.00
2018-07-15T03:32:22.824Z,924.00
2018-07-15T03:33:22.822Z,960.00
2018-07-15T03:34:22.819Z,1024.00
2018-07-15T03:35:22.820Z,1104.00
2018-07-15T03:36:22.818Z,1240.00
2018-07-15T03:37:22.817Z,1348.00
2018-07-15T03:38:22.822Z,1432.00
2018-07-15T03:39:22.813Z,1544.00
2018-07-15T03:40:22.822Z,1748.00
2018-07-15T03:41:22.812Z,1928.00
2018-07-15T03:42:22.809Z,2040.00
2018-07-15T03:43:22.807Z,2128.00
2018-07-15T03:44:22.805Z,2196.00
2018-07-15T03:45:22.805Z,2260.00
2018-07-15T03:46:22.802Z,2328.00
2018-07-15T03:47:22.802Z,2360.00
2018-07-15T03:48:22.803Z,2468.00
2018-07-15T03:49:22.803Z,2464.00
2018-07-15T03:50:22.799Z,2472.00
2018-07-15T03:51:22.801Z,2540.00
2018-07-15T03:52:22.798Z,2608.00
2018-07-15T03:53:22.796Z,2496.00
2018-07-15T03:54:22.797Z,2380.00
2018-07-15T03:55:22.802Z,2388.00
2018-07-15T03:56:22.794Z,2416.00
2018-07-15T03:57:22.795Z,2236.00
2018-07-15T03:58:22.797Z,2124.00
2018-07-15T03:59:22.794Z,1668.00
2018-07-15T04:00:22.790Z,1724.00
2018-07-15T04:01:22.786Z,2232.00
2018-07-15T04:02:22.789Z,3108.00
2018-07-15T04:03:22.789Z,3152.00
2018-07-15T04:04:22.788Z,2680.00
2018-07-15T04:05:22.789Z,2792.00
2018-07-15T04:06:22.789Z,3308.00
2018-07-15T04:07:22.787Z,2276.00
2018-07-15T04:08:22.845Z,2224.00
2018-07-15T04:09:22.784Z,2216.00
2018-07-15T04:10:22.786Z,2972.00
2018-07-15T04:11:22.792Z,2648.00
2018-07-15T04:12:22.784Z,2532.00
2018-07-15T04:13:22.785Z,2424.00
2018-07-15T04:14:22.788Z,2784.00
2018-07-15T04:15:22.789Z,2996.00
2018-07-15T04:16:22.783Z,2468.00
2018-07-15T04:17:22.782Z,2460.00
2018-07-15T04:18:22.783Z,2520.00
2018-07-15T04:19:22.783Z,2648.00
2018-07-15T04:20:22.782Z,2752.00
2018-07-15T04:21:22.780Z,2788.00
2018-07-15T04:22:22.811Z,2856.00
2018-07-15T04:23:22.779Z,3008.00
2018-07-15T04:24:22.779Z,3188.00
2018-07-15T04:25:22.778Z,3212.00
2018-07-15T04:26:22.777Z,3360.00
2018-07-15T04:27:22.778Z,3264.00
2018-07-15T04:28:22.853Z,3244.00
2018-07-15T04:29:22.781Z,3104.00
2018-07-15T04:30:22.774Z,3240.00
2018-07-15T04:31:22.769Z,3568.00
2018-07-15T04:32:22.771Z,3732.00
2018-07-15T04:33:22.774Z,3780.00
2018-07-15T04:34:22.773Z,4036.00
2018-07-15T04:35:22.773Z,4100.00
2018-07-15T04:36:22.773Z,4052.00
2018-07-15T04:37:22.770Z,3956.00
2018-07-15T04:38:22.769Z,3792.00
2018-07-15T04:39:22.766Z,3764.00
2018-07-15T04:40:22.772Z,3792.00
2018-07-15T04:41:22.768Z,3680.00
2018-07-15T04:42:22.763Z,3640.00
2018-07-15T04:43:22.764Z,3724.00
2018-07-15T04:44:22.769Z,4088.00
2018-07-15T04:45:22.764Z,4500.00
2018-07-15T04:46:22.763Z,4600.00
2018-07-15T04:47:22.761Z,4876.00
2018-07-15T04:48:22.761Z,4540.00
2018-07-15T04:49:22.759Z,4304.00
2018-07-15T04:50:22.761Z,4388.00
2018-07-15T04:51:22.753Z,4428.00
2018-07-15T04:52:22.762Z,4408.00
2018-07-15T04:53:22.756Z,4552.00
2018-07-15T04:54:22.755Z,4672.00
2018-07-15T04:55:22.755Z,4932.00
2018-07-15T04:56:22.754Z,5020.00
2018-07-15T04:57:22.753Z,5012.00
2018-07-15T04:58:22.752Z,5160.00
2018-07-15T04:59:22.751Z,5048.00
2018-07-15T05:00:22.751Z,5180.00
2018-07-15T05:01:22.750Z,5476.00
2018-07-15T05:02:22.751Z,5564.00
2018-07-15T05:03:22.747Z,5548.00
2018-07-15T05:04:22.747Z,5468.00
2018-07-15T05:05:22.748Z,5480.00
2018-07-15T05:06:22.748Z,5624.00
2018-07-15T05:07:22.747Z,5756.00
2018-07-15T05:08:22.742Z,8288.00
2018-07-15T05:09:22.747Z,6564.00
2018-07-15T05:10:22.745Z,5820.00
2018-07-15T05:11:22.840Z,5764.00
2018-07-15T05:12:22.769Z,5800.00
2018-07-15T05:13:22.749Z,5876.00
2018-07-15T05:14:22.741Z,6796.00
2018-07-15T05:15:22.742Z,6224.00
2018-07-15T05:16:22.739Z,6272.00
2018-07-15T05:17:22.741Z,6252.00
2018-07-15T05:18:22.752Z,6116.00
2018-07-15T05:19:22.741Z,6100.00
2018-07-15T05:20:22.739Z,6236.00
2018-07-15T05:21:22.741Z,6344.00
2018-07-15T05:22:22.743Z,6648.00
2018-07-15T05:23:22.737Z,6644.00
2018-07-15T05:24:22.740Z,6672.00
2018-07-15T05:25:22.740Z,6728.00
2018-07-15T05:26:22.738Z,6668.00
2018-07-15T05:27:22.741Z,6624.00
2018-07-15T05:28:22.739Z,6704.00
2018-07-15T05:29:22.739Z,6932.00
2018-07-15T05:30:22.740Z,7156.00
2018-07-15T05:31:22.740Z,7356.00
2018-07-15T05:32:22.740Z,7832.00
2018-07-15T05:33:22.740Z,8916.00
2018-07-15T05:34:22.737Z,8052.00
2018-07-15T05:35:22.740Z,9856.00
2018-07-15T05:36:22.743Z,9820.00
2018-07-15T05:37:22.740Z,8540.00
2018-07-15T05:38:22.744Z,8620.00
2018-07-15T05:39:22.741Z,9912.00
2018-07-15T05:40:22.743Z,10060.00
2018-07-15T05:41:22.742Z,9476.00
2018-07-15T05:42:22.744Z,8988.00
2018-07-15T05:43:22.745Z,8836.00
2018-07-15T05:44:22.816Z,8896.00
2018-07-15T05:45:22.745Z,8632.00
2018-07-15T05:46:22.747Z,8448.00
2018-07-15T05:47:22.748Z,8052.00
2018-07-15T05:48:22.748Z,7852.00
2018-07-15T05:49:22.750Z,7964.00
2018-07-15T05:50:22.750Z,7852.00
2018-07-15T05:51:22.750Z,7776.00
2018-07-15T05:52:22.751Z,7964.00
2018-07-15T05:53:22.754Z,8612.00
2018-07-15T05:54:22.759Z,9084.00
2018-07-15T05:55:22.757Z,9612.00
2018-07-15T05:56:22.755Z,10028.00
2018-07-15T05:57:22.760Z,10236.00
2018-07-15T05:58:22.760Z,10244.00
2018-07-15T05:59:22.763Z,10100.00
2018-07-15T06:00:22.763Z,9896.00
2018-07-15T06:01:22.766Z,9904.00
2018-07-15T06:02:22.769Z,10168.00
2018-07-15T06:03:22.777Z,11948.00
2018-07-15T06:04:22.770Z,11124.00
2018-07-15T06:05:22.773Z,13424.00
2018-07-15T06:06:22.772Z,11820.00
2018-07-15T06:07:22.774Z,11936.00
2018-07-15T06:08:22.779Z,12444.00
2018-07-15T06:09:22.781Z,12500.00
2018-07-15T06:10:22.781Z,12356.00
2018-07-15T06:11:22.782Z,12272.00
2018-07-15T06:12:22.785Z,11240.00
2018-07-15T06:13:22.785Z,11184.00
2018-07-15T06:14:22.789Z,15328.00
2018-07-15T06:15:22.790Z,12108.00
2018-07-15T06:16:22.794Z,11724.00
2018-07-15T06:17:22.798Z,12260.00
2018-07-15T06:18:22.796Z,25024.00
2018-07-15T06:19:22.800Z,18112.00
2018-07-15T06:20:22.802Z,22624.00
2018-07-15T06:21:22.811Z,14212.00
2018-07-15T06:22:22.806Z,13592.00
2018-07-15T06:23:22.809Z,25792.00
2018-07-15T06:24:22.811Z,23296.00
2018-07-15T06:25:22.815Z,18016.00
2018-07-15T06:26:22.817Z,13916.00
2018-07-15T06:27:22.819Z,12992.00
2018-07-15T06:28:22.825Z,13272.00
2018-07-15T06:29:22.824Z,14884.00
2018-07-15T06:30:22.830Z,14924.00
2018-07-15T06:31:22.829Z,26624.00
2018-07-15T06:32:22.835Z,15624.00
2018-07-15T06:33:22.839Z,24128.00
2018-07-15T06:34:22.838Z,21312.00
2018-07-15T06:35:22.843Z,30816.00
2018-07-15T06:36:22.844Z,17408.00
2018-07-15T06:37:22.851Z,17184.00
2018-07-15T06:38:22.849Z,15064.00
2018-07-15T06:39:22.853Z,14872.00
2018-07-15T06:40:22.856Z,18944.00
2018-07-15T06:41:22.859Z,48160.00
2018-07-15T06:42:22.860Z,24128.00
2018-07-15T06:43:22.866Z,37056.00
2018-07-15T06:44:22.869Z,30112.00
2018-07-15T06:45:22.877Z,18336.00
2018-07-15T06:46:22.876Z,15260.00
2018-07-15T06:47:22.878Z,18720.00
2018-07-15T06:48:22.883Z,21984.00
2018-07-15T06:49:22.986Z,48032.00
2018-07-15T06:50:22.886Z,17984.00
2018-07-15T06:51:22.889Z,32000.00
2018-07-15T06:52:22.902Z,18368.00
2018-07-15T06:53:22.900Z,19584.00
2018-07-15T06:54:22.901Z,28832.00
2018-07-15T06:55:22.905Z,36512.00
2018-07-15T06:56:22.908Z,32256.00
2018-07-15T06:57:22.908Z,41568.00
2018-07-15T06:58:22.915Z,30688.00
2018-07-15T06:59:22.920Z,18624.00
2018-07-15T07:00:22.923Z,19936.00
2018-07-15T07:01:22.961Z,63584.00
2018-07-15T07:02:22.930Z,62720.00
2018-07-15T07:03:22.933Z,64640.00
2018-07-15T07:04:22.946Z,66144.00
2018-07-15T07:05:22.943Z,66176.00
2018-07-15T07:06:22.942Z,65728.00
2018-07-15T07:07:23.041Z,64384.00
2018-07-15T07:08:22.953Z,63680.00
2018-07-15T07:09:22.961Z,64896.00
2018-07-15T07:10:22.964Z,66368.00
2018-07-15T07:11:22.966Z,65664.00
2018-07-15T07:12:22.971Z,65568.00
2018-07-15T07:13:22.976Z,68224.00
2018-07-15T07:14:22.983Z,69184.00
2018-07-15T07:15:22.990Z,68000.00
2018-07-15T07:16:22.996Z,66976.00
2018-07-15T07:17:23.000Z,68256.00
2018-07-15T07:18:23.005Z,69568.00
2018-07-15T07:19:23.008Z,67616.00
2018-07-15T07:20:23.014Z,65696.00
2018-07-15T07:21:23.020Z,63456.00
2018-07-15T07:22:23.022Z,65216.00
2018-07-15T07:23:23.033Z,67200.00
2018-07-15T07:24:23.034Z,66560.00
2018-07-15T07:25:23.040Z,67328.00
2018-07-15T07:26:23.046Z,68128.00
2018-07-15T07:27:23.055Z,66400.00
2018-07-15T07:28:23.058Z,66368.00
2018-07-15T07:29:23.064Z,71136.00
2018-07-15T07:30:23.070Z,72896.00
2018-07-15T07:31:23.076Z,72160.00
2018-07-15T07:32:23.083Z,69984.00
2018-07-15T07:33:23.089Z,68032.00
2018-07-15T07:34:23.092Z,65344.00
2018-07-15T07:35:23.109Z,64096.00
2018-07-15T07:36:23.105Z,64704.00
2018-07-15T07:37:23.112Z,68512.00
2018-07-15T07:38:23.116Z,74144.00
2018-07-15T07:39:23.124Z,76128.00
2018-07-15T07:40:23.129Z,76224.00
2018-07-15T07:41:23.159Z,72768.00
2018-07-15T07:42:23.142Z,69504.00
2018-07-15T07:43:23.149Z,69760.00
2018-07-15T07:44:23.158Z,71328.00
2018-07-15T07:45:23.163Z,68928.00
2018-07-15T07:46:23.163Z,28352.00
2018-07-15T07:47:23.177Z,75712.00
2018-07-15T07:48:23.183Z,75264.00
2018-07-15T07:49:23.190Z,70112.00
2018-07-15T07:50:23.196Z,66592.00
2018-07-15T07:51:23.209Z,70368.00
2018-07-15T07:52:23.214Z,73920.00
2018-07-15T07:53:23.310Z,78816.00
2018-07-15T07:54:23.224Z,36128.00
2018-07-15T07:55:23.232Z,34560.00
2018-07-15T07:56:23.242Z,68608.00
2018-07-15T07:57:23.249Z,31168.00
2018-07-15T07:58:23.255Z,61664.00
2018-07-15T07:59:23.261Z,33568.00
2018-07-15T08:00:23.268Z,54144.00
2018-07-15T08:01:23.275Z,70336.00
2018-07-15T08:02:23.282Z,83456.00
2018-07-15T08:03:23.296Z,83168.00
2018-07-15T08:04:23.299Z,13896.00
2018-07-15T08:05:23.308Z,83232.00
2018-07-15T08:06:23.318Z,83424.00
2018-07-15T08:07:23.326Z,81920.00
2018-07-15T08:08:23.334Z,30976.00
2018-07-15T08:09:23.336Z,19520.00
2018-07-15T08:10:23.343Z,86272.00
2018-07-15T08:11:23.350Z,63040.00
2018-07-15T08:12:23.357Z,85152.00
2018-07-15T08:13:23.364Z,87328.00
2018-07-15T08:14:23.371Z,62176.00
2018-07-15T08:15:23.409Z,84832.00
2018-07-15T08:16:23.388Z,86624.00
2018-07-15T08:17:23.400Z,87104.00
2018-07-15T08:18:23.405Z,87200.00
2018-07-15T08:19:23.412Z,79712.00
2018-07-15T08:20:23.419Z,76704.00
2018-07-15T08:21:23.430Z,15552.00
2018-07-15T08:22:23.438Z,20320.00
2018-07-15T08:23:23.442Z,67136.00
2018-07-15T08:24:23.455Z,87456.00
2018-07-15T08:25:23.463Z,86976.00
2018-07-15T08:26:23.471Z,85760.00
2018-07-15T08:27:23.480Z,87360.00
2018-07-15T08:28:23.594Z,86304.00
2018-07-15T08:29:23.500Z,87520.00
2018-07-15T08:30:23.506Z,88128.00
2018-07-15T08:31:23.513Z,91424.00
2018-07-15T08:32:23.523Z,99840.00
2018-07-15T08:33:23.532Z,104096.00
2018-07-15T08:34:23.544Z,33184.00
2018-07-15T08:35:23.551Z,13044.00
2018-07-15T08:36:23.560Z,11780.00
2018-07-15T08:37:23.574Z,13916.00
2018-07-15T08:38:23.581Z,15792.00
2018-07-15T08:39:23.588Z,16756.00
2018-07-15T08:40:23.594Z,26112.00
2018-07-15T08:41:23.602Z,30432.00
2018-07-15T08:42:23.611Z,22656.00
2018-07-15T08:43:23.614Z,69856.00
2018-07-15T08:44:23.623Z,104256.00
2018-07-15T08:45:23.633Z,103552.00
2018-07-15T08:46:23.641Z,103456.00
2018-07-15T08:47:23.654Z,105664.00
2018-07-15T08:48:23.651Z,101184.00
2018-07-15T08:49:23.666Z,97664.00
2018-07-15T08:50:23.673Z,99360.00
2018-07-15T08:51:23.682Z,101344.00
2018-07-15T08:52:23.695Z,100704.00
2018-07-15T08:53:23.701Z,83648.00
2018-07-15T08:54:23.707Z,13228.00
2018-07-15T08:55:23.717Z,12888.00
2018-07-15T08:56:23.729Z,14400.00
2018-07-15T08:57:23.737Z,89120.00
2018-07-15T08:58:23.756Z,100384.00
2018-07-15T08:59:23.782Z,63872.00
2018-07-15T09:00:23.758Z,99232.00
2018-07-15T09:01:23.779Z,89760.00
2018-07-15T09:02:23.777Z,36032.00
2018-07-15T09:03:23.808Z,6588.00
2018-07-15T09:04:23.793Z,6428.00
2018-07-15T09:05:23.800Z,7452.00
2018-07-15T09:06:23.809Z,7816.00
2018-07-15T09:07:23.821Z,9760.00
2018-07-15T09:08:23.830Z,10132.00
2018-07-15T09:09:23.833Z,8888.00
2018-07-15T09:10:23.837Z,6972.00
2018-07-15T09:11:23.849Z,7140.00
2018-07-15T09:12:23.863Z,9116.00
2018-07-15T09:13:23.864Z,9368.00
2018-07-15T09:14:23.872Z,10188.00
2018-07-15T09:15:23.882Z,11736.00
2018-07-15T09:16:23.888Z,12228.00
2018-07-15T09:17:23.896Z,11652.00
2018-07-15T09:18:23.915Z,10788.00
2018-07-15T09:19:23.907Z,10448.00
2018-07-15T09:20:23.914Z,9384.00
2018-07-15T09:21:23.921Z,9184.00
2018-07-15T09:22:23.926Z,9192.00
2018-07-15T09:23:23.930Z,9604.00
2018-07-15T09:24:23.942Z,9100.00
2018-07-15T09:25:23.944Z,9016.00
2018-07-15T09:26:23.952Z,9524.00
2018-07-15T09:27:23.954Z,9424.00
2018-07-15T09:28:23.960Z,9868.00
2018-07-15T09:29:23.966Z,9220.00
2018-07-15T09:30:23.970Z,8720.00
2018-07-15T09:31:23.975Z,8008.00
2018-07-15T09:32:23.979Z,7264.00
2018-07-15T09:33:23.986Z,7084.00
2018-07-15T09:34:23.988Z,6940.00
2018-07-15T09:35:23.994Z,7320.00
2018-07-15T09:36:24.004Z,7916.00
2018-07-15T09:37:24.007Z,8492.00
2018-07-15T09:38:24.010Z,9032.00
2018-07-15T09:39:24.013Z,9344.00
2018-07-15T09:40:24.019Z,9360.00
2018-07-15T09:41:24.024Z,9592.00
2018-07-15T09:42:24.030Z,9936.00
2018-07-15T09:43:24.035Z,9784.00
2018-07-15T09:44:24.039Z,9712.00
2018-07-15T09:45:24.043Z,9748.00
2018-07-15T09:46:24.043Z,9680.00
2018-07-15T09:47:24.050Z,9424.00
2018-07-15T09:48:24.055Z,9284.00
2018-07-15T09:49:24.059Z,9036.00
2018-07-15T09:50:24.065Z,8984.00
2018-07-15T09:51:24.070Z,8428.00
2018-07-15T09:52:24.073Z,7816.00
2018-07-15T09:53:24.077Z,6852.00
2018-07-15T09:54:24.080Z,5972.00
2018-07-15T09:55:24.084Z,5660.00
2018-07-15T09:56:24.091Z,6000.00
2018-07-15T09:57:24.094Z,6596.00
2018-07-15T09:58:24.222Z,7324.00
2018-07-15T09:59:24.100Z,7844.00
2018-07-15T10:00:24.104Z,8584.00
2018-07-15T10:01:24.109Z,9436.00
2018-07-15T10:02:24.111Z,10228.00
2018-07-15T10:03:24.113Z,10824.00
2018-07-15T10:04:24.119Z,11056.00
2018-07-15T10:05:24.124Z,10800.00
2018-07-15T10:06:24.126Z,10800.00
2018-07-15T10:07:24.153Z,10320.00
2018-07-15T10:08:24.138Z,9292.00
2018-07-15T10:09:24.140Z,8020.00
2018-07-15T10:10:24.192Z,7688.00
2018-07-15T10:11:24.147Z,7360.00
2018-07-15T10:12:24.150Z,6676.00
2018-07-15T10:13:24.152Z,6112.00
2018-07-15T10:14:24.162Z,5268.00
2018-07-15T10:15:24.160Z,4972.00
2018-07-15T10:16:24.167Z,4956.00
2018-07-15T10:17:24.170Z,4868.00
2018-07-15T10:18:24.178Z,4728.00
2018-07-15T10:19:24.176Z,4664.00
2018-07-15T10:20:24.180Z,4700.00
2018-07-15T10:21:24.185Z,4820.00
2018-07-15T10:22:24.186Z,4968.00
2018-07-15T10:23:24.191Z,5168.00
2018-07-15T10:24:24.191Z,5884.00
2018-07-15T10:25:24.204Z,6556.00
2018-07-15T10:26:24.201Z,7624.00
2018-07-15T10:27:24.208Z,8432.00
2018-07-15T10:28:24.208Z,8956.00
2018-07-15T10:29:24.213Z,9504.00
2018-07-15T10:30:24.216Z,10048.00
2018-07-15T10:31:24.218Z,10472.00
2018-07-15T10:32:24.224Z,10772.00
2018-07-15T10:33:24.228Z,11624.00
2018-07-15T10:34:24.230Z,11300.00
2018-07-15T10:35:24.241Z,10608.00
2018-07-15T10:36:24.239Z,10056.00
2018-07-15T10:37:24.244Z,9736.00
2018-07-15T10:38:24.248Z,9816.00
2018-07-15T10:39:24.250Z,10184.00
2018-07-15T10:40:24.255Z,10480.00
2018-07-15T10:41:24.259Z,10500.00
2018-07-15T10:42:24.270Z,9588.00
2018-07-15T10:43:24.267Z,9068.00
2018-07-15T10:44:24.273Z,9000.00
2018-07-15T10:45:24.276Z,8184.00
2018-07-15T10:46:24.279Z,7084.00
2018-07-15T10:47:24.285Z,6020.00
2018-07-15T10:48:24.285Z,5552.00
2018-07-15T10:49:24.290Z,5144.00
2018-07-15T10:50:24.295Z,4828.00
2018-07-15T10:51:24.298Z,4364.00
2018-07-15T10:52:24.306Z,4028.00
2018-07-15T10:53:24.307Z,3592.00
2018-07-15T10:54:24.311Z,3684.00
2018-07-15T10:55:24.314Z,3708.00
2018-07-15T10:56:24.315Z,3620.00
2018-07-15T10:57:24.322Z,3572.00
2018-07-15T10:58:24.324Z,3560.00
2018-07-15T10:59:24.333Z,3560.00
2018-07-15T11:00:24.336Z,3584.00
2018-07-15T11:01:24.336Z,3604.00
2018-07-15T11:02:24.338Z,3636.00
2018-07-15T11:03:24.343Z,3720.00
2018-07-15T11:04:24.347Z,3916.00
2018-07-15T11:05:24.354Z,4196.00
2018-07-15T11:06:24.401Z,4464.00
2018-07-15T11:07:24.357Z,4336.00
2018-07-15T11:08:24.363Z,4548.00
2018-07-15T11:09:24.365Z,4932.00
2018-07-15T11:10:24.366Z,5744.00
2018-07-15T11:11:24.371Z,6468.00
2018-07-15T11:12:24.376Z,7176.00
2018-07-15T11:13:24.420Z,7420.00
2018-07-15T11:14:24.390Z,7088.00
2018-07-15T11:15:24.386Z,6928.00
2018-07-15T11:16:24.442Z,7192.00
2018-07-15T11:17:24.401Z,7808.00
2018-07-15T11:18:24.398Z,8312.00
2018-07-15T11:19:24.401Z,9052.00
2018-07-15T11:20:24.407Z,9120.00
2018-07-15T11:21:24.409Z,9136.00
2018-07-15T11:22:24.419Z,8632.00
2018-07-15T11:23:24.418Z,8088.00
2018-07-15T11:24:24.420Z,7832.00
2018-07-15T11:25:24.426Z,7692.00
2018-07-15T11:26:24.429Z,7444.00
2018-07-15T11:27:24.429Z,7124.00
2018-07-15T11:28:24.436Z,6856.00
2018-07-15T11:29:24.439Z,6716.00
2018-07-15T11:30:24.444Z,6592.00
2018-07-15T11:31:24.543Z,6268.00
2018-07-15T11:32:24.452Z,5984.00
2018-07-15T11:33:24.459Z,5840.00
2018-07-15T11:34:24.460Z,5676.00
2018-07-15T11:35:24.465Z,5528.00
2018-07-15T11:36:24.470Z,5464.00
2018-07-15T11:37:24.473Z,5236.00
2018-07-15T11:38:24.476Z,4976.00
2018-07-15T11:39:24.480Z,4544.00
2018-07-15T11:40:24.486Z,4452.00
2018-07-15T11:41:24.488Z,4392.00
2018-07-15T11:42:24.500Z,4556.00
2018-07-15T11:43:24.496Z,4816.00
2018-07-15T11:44:24.499Z,5372.00
2018-07-15T11:45:24.505Z,5976.00
2018-07-15T11:46:24.508Z,6228.00
2018-07-15T11:47:24.511Z,6628.00
2018-07-15T11:48:24.516Z,6816.00
2018-07-15T11:49:24.520Z,6940.00
2018-07-15T11:50:24.526Z,7000.00
2018-07-15T11:51:24.525Z,6736.00
2018-07-15T11:52:24.531Z,6616.00
2018-07-15T11:53:24.540Z,6660.00
2018-07-15T11:54:24.614Z,6472.00
2018-07-15T11:55:24.542Z,6488.00
2018-07-15T11:56:24.547Z,6652.00
2018-07-15T11:57:24.551Z,6452.00
2018-07-15T11:58:24.555Z,6292.00
2018-07-15T11:59:24.560Z,6012.00
2018-07-15T12:00:24.563Z,6184.00
2018-07-15T12:01:24.569Z,6376.00
2018-07-15T12:02:24.572Z,6612.00
2018-07-15T12:03:24.573Z,5984.00
2018-07-15T12:04:24.581Z,5388.00
2018-07-15T12:05:24.584Z,5512.00
2018-07-15T12:06:24.585Z,5796.00
2018-07-15T12:07:24.590Z,6376.00
2018-07-15T12:08:24.594Z,6860.00
2018-07-15T12:09:24.601Z,7088.00
2018-07-15T12:10:24.602Z,7132.00
2018-07-15T12:11:24.608Z,6976.00
2018-07-15T12:12:24.615Z,6784.00
2018-07-15T12:13:24.616Z,7200.00
2018-07-15T12:14:24.616Z,7884.00
2018-07-15T12:15:24.623Z,8532.00